createdAt,value
2018-08-18T00:00:23.192Z,7.43
2018-08-18T00:02:52.801Z,6.13
2018-08-18T00:05:22.235Z,5.93
2018-08-18T00:07:51.813Z,6.07
2018-08-18T00:10:22.708Z,6.03
2018-08-18T00:12:52.546Z,5.97
2018-08-18T00:15:21.947Z,5.70
2018-08-18T00:17:51.465Z,6.40
2018-08-18T00:20:25.545Z,9.00
2018-08-18T00:22:55.035Z,6.30
2018-08-18T00:25:24.398Z,6.23
2018-08-18T00:27:54.134Z,6.93
2018-08-18T00:30:28.916Z,6.50
2018-08-18T00:32:58.312Z,6.37
2018-08-18T00:35:27.712Z,5.93
2018-08-18T00:37:59.148Z,5.90
2018-08-18T00:40:28.517Z,6.53
2018-08-18T00:42:57.927Z,5.97
2018-08-18T00:45:27.346Z,7.63
2018-08-18T00:47:56.728Z,6.37
2018-08-18T00:50:37.526Z,7.10
2018-08-18T00:53:08.945Z,6.30
2018-08-18T00:55:38.812Z,5.70
2018-08-18T00:58:16.116Z,7.00
2018-08-18T01:00:49.549Z,6.93
2018-08-18T01:03:18.923Z,7.00
2018-08-18T01:05:48.276Z,6.00
2018-08-18T01:08:17.755Z,7.47
2018-08-18T01:10:47.215Z,5.50
2018-08-18T01:13:16.585Z,6.40
2018-08-18T01:15:46.049Z,6.73
2018-08-18T01:18:15.512Z,6.00
2018-08-18T01:20:45.072Z,10.07
2018-08-18T01:23:14.441Z,7.63
2018-08-18T01:25:43.807Z,6.87
2018-08-18T01:28:13.183Z,6.17
2018-08-18T01:30:42.585Z,5.80
2018-08-18T01:33:11.937Z,7.53
2018-08-18T01:35:41.288Z,6.33
2018-08-18T01:38:10.635Z,7.93
2018-08-18T01:40:41.239Z,6.40
2018-08-18T01:43:10.577Z,7.30
2018-08-18T01:45:39.924Z,6.40
2018-08-18T01:48:09.274Z,6.50
2018-08-18T01:50:38.705Z,6.37
2018-08-18T01:53:08.041Z,9.40
2018-08-18T01:55:37.407Z,8.60
2018-08-18T01:58:06.763Z,7.00
2018-08-18T02:00:36.108Z,7.63
2018-08-18T02:03:05.672Z,7.33
2018-08-18T02:05:35.020Z,6.40
2018-08-18T02:08:04.547Z,8.13
2018-08-18T02:10:34.156Z,6.60
2018-08-18T02:13:05.146Z,6.97
2018-08-18T02:15:34.549Z,7.90
2018-08-18T02:18:03.958Z,7.13
2018-08-18T02:20:33.383Z,8.57
2018-08-18T02:23:02.757Z,10.33
2018-08-18T02:25:32.312Z,7.27
2018-08-18T02:28:01.693Z,7.20
2018-08-18T02:30:31.118Z,7.63
2018-08-18T02:33:00.457Z,8.00
2018-08-18T02:35:29.820Z,7.93
2018-08-18T02:37:59.152Z,8.00
2018-08-18T02:40:28.569Z,8.93
2018-08-18T02:42:58.133Z,7.03
2018-08-18T02:45:28.385Z,7.40
2018-08-18T02:48:14.942Z,7.37
2018-08-18T02:50:48.837Z,6.60
2018-08-18T02:53:24.525Z,7.53
2018-08-18T02:55:54.888Z,6.93
2018-08-18T02:58:24.655Z,7.27
2018-08-18T03:00:54.065Z,7.00
2018-08-18T03:03:23.476Z,7.00
2018-08-18T03:05:53.578Z,6.60
2018-08-18T03:08:22.937Z,7.13
2018-08-18T03:10:52.355Z,8.33
2018-08-18T03:13:22.403Z,7.63
2018-08-18T03:15:55.860Z,8.37
2018-08-18T03:18:37.149Z,7.93
2018-08-18T03:21:06.745Z,7.90
2018-08-18T03:23:36.120Z,8.20
2018-08-18T03:26:05.850Z,9.50
2018-08-18T03:28:42.577Z,9.13
2018-08-18T03:31:12.081Z,6.93
2018-08-18T03:33:41.409Z,8.57
2018-08-18T03:36:24.048Z,8.23
2018-08-18T03:38:54.571Z,9.10
2018-08-18T03:41:25.502Z,8.40
2018-08-18T03:43:55.992Z,10.07
2018-08-18T03:46:25.586Z,9.10
2018-08-18T03:48:55.261Z,8.30
2018-08-18T03:51:31.128Z,8.43
2018-08-18T03:54:01.626Z,9.70
2018-08-18T03:56:31.243Z,8.23
2018-08-18T03:59:01.696Z,8.70
2018-08-18T04:01:39.971Z,8.73
2018-08-18T04:04:10.826Z,8.27
2018-08-18T04:06:41.436Z,12.67
2018-08-18T04:09:15.974Z,9.07
2018-08-18T04:11:46.496Z,9.20
2018-08-18T04:14:21.216Z,11.67
2018-08-18T04:16:52.035Z,8.43
2018-08-18T04:19:22.777Z,9.10
2018-08-18T04:21:53.798Z,8.63
2018-08-18T04:24:25.201Z,8.97
2018-08-18T04:26:54.752Z,8.17
2018-08-18T04:29:24.698Z,10.13
2018-08-18T04:31:54.305Z,18.07
2018-08-18T04:34:23.883Z,8.87
2018-08-18T04:36:53.502Z,10.27
2018-08-18T04:39:23.046Z,8.93
2018-08-18T04:41:52.629Z,8.57
2018-08-18T04:44:22.658Z,8.57
2018-08-18T04:46:52.322Z,8.73
2018-08-18T04:49:21.834Z,11.57
2018-08-18T04:51:51.391Z,8.07
2018-08-18T04:54:20.958Z,9.40
2018-08-18T04:56:50.550Z,8.47
2018-08-18T04:59:20.765Z,10.63
2018-08-18T05:01:50.737Z,9.43
2018-08-18T05:04:20.784Z,9.87
2018-08-18T05:06:50.830Z,9.20
2018-08-18T05:09:20.857Z,8.93
2018-08-18T05:11:50.873Z,9.70
2018-08-18T05:14:20.750Z,9.37
2018-08-18T05:16:50.850Z,9.03
2018-08-18T05:19:20.606Z,9.70
2018-08-18T05:21:50.173Z,10.37
2018-08-18T05:24:23.920Z,10.53
2018-08-18T05:26:54.499Z,10.40
2018-08-18T05:29:24.146Z,10.13
2018-08-18T05:31:54.793Z,9.60
2018-08-18T05:34:24.393Z,10.27
2018-08-18T05:36:53.958Z,10.00
2018-08-18T05:39:23.632Z,12.00
2018-08-18T05:41:53.188Z,7.90
2018-08-18T05:44:22.679Z,8.10
2018-08-18T05:46:54.678Z,8.93
2018-08-18T05:49:25.189Z,8.27
2018-08-18T05:51:55.233Z,11.83
2018-08-18T05:54:26.536Z,9.10
2018-08-18T05:56:56.014Z,8.43
2018-08-18T05:59:26.617Z,8.40
2018-08-18T06:01:58.021Z,8.33
2018-08-18T06:04:28.248Z,7.77
2018-08-18T06:06:58.854Z,8.57
2018-08-18T06:09:29.582Z,8.03
2018-08-18T06:12:05.724Z,11.27
2018-08-18T06:14:40.640Z,7.43
2018-08-18T06:17:12.795Z,6.80
2018-08-18T06:19:43.939Z,6.67
2018-08-18T06:22:14.185Z,6.53
2018-08-18T06:24:44.023Z,10.17
2018-08-18T06:27:16.094Z,9.03
2018-08-18T06:29:46.125Z,8.63
2018-08-18T06:32:16.557Z,9.83
2018-08-18T06:34:47.321Z,9.90
2018-08-18T06:37:17.995Z,5.87
2018-08-18T06:39:56.660Z,6.67
2018-08-18T06:42:44.933Z,7.10
2018-08-18T06:45:16.907Z,7.20
2018-08-18T06:47:46.948Z,7.30
2018-08-18T06:50:18.709Z,8.87
2018-08-18T06:52:48.388Z,6.33
2018-08-18T06:55:20.037Z,9.63
2018-08-18T06:57:51.946Z,8.33
2018-08-18T07:00:24.222Z,10.90
2018-08-18T07:02:53.697Z,8.73
2018-08-18T07:05:23.156Z,8.37
2018-08-18T07:07:52.542Z,9.07
2018-08-18T07:10:32.171Z,8.10
2018-08-18T07:13:04.664Z,8.20
2018-08-18T07:15:36.182Z,6.40
2018-08-18T07:18:07.219Z,7.53
2018-08-18T07:20:37.389Z,6.10
2018-08-18T07:23:07.292Z,8.53
2018-08-18T07:25:46.733Z,7.73
2018-08-18T07:28:18.346Z,9.00
2018-08-18T07:30:48.128Z,7.17
2018-08-18T07:33:17.860Z,7.13
2018-08-18T07:35:47.681Z,11.00
2018-08-18T07:38:17.231Z,9.43
2018-08-18T07:40:49.281Z,6.57
2018-08-18T07:43:20.469Z,9.57
2018-08-18T07:45:51.008Z,9.90
2018-08-18T07:48:20.921Z,9.03
2018-08-18T07:50:50.705Z,7.70
2018-08-18T07:53:20.744Z,8.03
2018-08-18T07:55:50.159Z,6.63
2018-08-18T07:58:24.075Z,9.47
2018-08-18T08:00:56.281Z,6.93
2018-08-18T08:03:26.282Z,6.80
2018-08-18T08:05:55.841Z,7.97
2018-08-18T08:08:25.776Z,7.27
2018-08-18T08:10:59.597Z,6.73
2018-08-18T08:13:29.140Z,5.43
2018-08-18T08:15:58.777Z,6.30
2018-08-18T08:18:28.637Z,7.57
2018-08-18T08:20:58.344Z,7.57
2018-08-18T08:23:28.195Z,7.47
2018-08-18T08:25:57.874Z,8.57
2018-08-18T08:28:27.421Z,6.90
2018-08-18T08:30:57.364Z,6.43
2018-08-18T08:33:35.401Z,5.50
2018-08-18T08:36:11.253Z,6.10
2018-08-18T08:38:48.705Z,5.60
2018-08-18T08:41:18.401Z,6.70
2018-08-18T08:43:48.625Z,6.57
2018-08-18T08:46:18.252Z,7.47
2018-08-18T08:48:52.629Z,6.93
2018-08-18T08:51:22.432Z,6.80
2018-08-18T08:53:53.438Z,9.93
2018-08-18T08:56:29.882Z,9.57
2018-08-18T08:58:59.593Z,7.00
2018-08-18T09:01:29.161Z,7.63
2018-08-18T09:03:58.842Z,7.50
2018-08-18T09:06:28.489Z,7.60
2018-08-18T09:08:59.262Z,5.93
2018-08-18T09:11:30.064Z,6.17
2018-08-18T09:14:03.761Z,8.47
2018-08-18T09:16:33.964Z,8.37
2018-08-18T09:19:03.791Z,7.20
2018-08-18T09:22:10.765Z,6.83
2018-08-18T09:24:40.443Z,6.70
2018-08-18T09:27:09.970Z,10.13
2018-08-18T09:29:43.663Z,7.20
2018-08-18T09:32:13.845Z,7.13
2018-08-18T09:34:49.303Z,7.27
2018-08-18T09:37:19.000Z,6.10
2018-08-18T09:39:48.589Z,7.93
2018-08-18T09:42:20.229Z,6.70
2018-08-18T09:44:54.009Z,7.23
2018-08-18T09:47:23.553Z,5.93
2018-08-18T09:49:53.287Z,10.17
2018-08-18T09:52:22.836Z,7.90
2018-08-18T09:54:52.432Z,7.70
2018-08-18T09:57:22.334Z,22.17
2018-08-18T09:59:51.956Z,7.43
2018-08-18T10:02:21.569Z,8.20
2018-08-18T10:04:51.980Z,6.17
2018-08-18T10:07:21.597Z,6.33
2018-08-18T10:09:51.330Z,8.33
2018-08-18T10:12:20.898Z,10.47
2018-08-18T10:14:50.460Z,7.43
2018-08-18T10:17:20.061Z,6.33
2018-08-18T10:19:49.751Z,7.57
2018-08-18T10:22:19.604Z,7.85
2018-08-18T10:24:49.107Z,5.78
2018-08-18T10:27:19.514Z,6.65
2018-08-18T10:29:50.061Z,5.72
2018-08-18T10:32:19.670Z,6.78
2018-08-18T10:34:49.148Z,6.15
2018-08-18T10:37:18.952Z,8.73
2018-08-18T10:39:48.998Z,6.80
2018-08-18T10:42:23.685Z,6.87
2018-08-18T10:44:58.322Z,8.15
2018-08-18T10:47:28.186Z,5.70
2018-08-18T10:50:08.423Z,6.08
2018-08-18T10:52:49.511Z,8.13
2018-08-18T10:55:19.807Z,5.37
2018-08-18T10:57:58.694Z,6.17
2018-08-18T11:00:29.737Z,5.05
2018-08-18T11:03:01.594Z,7.40
2018-08-18T11:05:31.500Z,6.22
2018-08-18T11:08:06.580Z,6.78
2018-08-18T11:10:39.588Z,8.90
2018-08-18T11:13:09.244Z,5.67
2018-08-18T11:15:38.964Z,4.92
2018-08-18T11:18:08.759Z,8.05
2018-08-18T11:20:38.347Z,4.70
2018-08-18T11:23:16.615Z,5.78
2018-08-18T11:25:57.145Z,5.28
2018-08-18T11:28:26.780Z,4.50
2018-08-18T11:30:56.450Z,4.90
2018-08-18T11:33:42.133Z,5.47
2018-08-18T11:36:12.457Z,5.70
2018-08-18T11:38:42.017Z,7.67
2018-08-18T11:41:11.636Z,5.50
2018-08-18T11:43:46.224Z,5.92
2018-08-18T11:46:15.949Z,7.42
2018-08-18T11:48:45.622Z,5.30
2018-08-18T11:51:15.237Z,5.92
2018-08-18T11:53:56.835Z,4.67
2018-08-18T11:56:26.606Z,4.20
2018-08-18T11:59:05.392Z,5.28
2018-08-18T12:01:37.766Z,6.70
2018-08-18T12:04:07.603Z,7.12
2018-08-18T12:06:47.398Z,5.20
2018-08-18T12:09:17.182Z,4.83
2018-08-18T12:11:48.226Z,5.92
2018-08-18T12:14:17.806Z,6.58
2018-08-18T12:16:47.906Z,5.28
2018-08-18T12:19:17.532Z,6.12
2018-08-18T12:21:47.780Z,4.65
2018-08-18T12:24:19.027Z,4.75
2018-08-18T12:26:59.257Z,8.55
2018-08-18T12:29:31.482Z,4.40
2018-08-18T12:32:01.345Z,4.15
2018-08-18T12:34:30.937Z,6.58
2018-08-18T12:37:00.694Z,3.40
2018-08-18T12:39:30.665Z,4.33
2018-08-18T12:42:00.254Z,7.12
2018-08-18T12:44:34.845Z,4.53
2018-08-18T12:47:05.777Z,4.00
2018-08-18T12:49:35.395Z,4.22
2018-08-18T12:52:05.266Z,6.45
2018-08-18T12:54:34.823Z,4.95
2018-08-18T12:57:04.354Z,4.08
2018-08-18T12:59:33.998Z,3.55
2018-08-18T13:02:03.605Z,5.25
2018-08-18T13:04:33.110Z,6.33
2018-08-18T13:07:02.740Z,4.28
2018-08-18T13:09:32.303Z,6.12
2018-08-18T13:12:02.721Z,4.17
2018-08-18T13:14:32.430Z,6.35
2018-08-18T13:17:02.048Z,4.60
2018-08-18T13:19:34.286Z,3.90
2018-08-18T13:22:04.104Z,4.33
2018-08-18T13:24:33.833Z,5.50
2018-08-18T13:27:03.812Z,4.00
2018-08-18T13:29:34.077Z,5.00
2018-08-18T13:32:03.681Z,4.58
2018-08-18T13:34:33.218Z,4.45
2018-08-18T13:37:03.123Z,3.90
2018-08-18T13:39:32.754Z,4.30
2018-08-18T13:42:14.689Z,4.55
2018-08-18T13:44:44.228Z,3.42
2018-08-18T13:47:13.914Z,4.50
2018-08-18T13:49:43.436Z,5.95
2018-08-18T13:52:13.028Z,3.52
2018-08-18T13:54:48.465Z,3.72
2018-08-18T13:57:22.302Z,4.15
2018-08-18T13:59:53.905Z,5.17
2018-08-18T14:02:23.745Z,4.12
2018-08-18T14:04:53.524Z,4.78
2018-08-18T14:07:23.270Z,6.00
2018-08-18T14:09:56.939Z,7.25
2018-08-18T14:12:27.037Z,5.20
2018-08-18T14:14:56.603Z,3.40
2018-08-18T14:17:26.289Z,3.85
2018-08-18T14:19:55.894Z,3.60
2018-08-18T14:22:25.459Z,3.98
2018-08-18T14:24:55.299Z,3.02
2018-08-18T14:27:24.951Z,5.12
2018-08-18T14:29:54.595Z,3.92
2018-08-18T14:32:28.576Z,2.95
2018-08-18T14:35:07.247Z,4.20
2018-08-18T14:37:40.572Z,4.65
2018-08-18T14:40:16.809Z,7.35
2018-08-18T14:42:47.744Z,5.30
2018-08-18T14:45:28.008Z,3.20
2018-08-18T14:48:01.609Z,3.65
2018-08-18T14:50:34.173Z,2.67
2018-08-18T14:53:18.127Z,3.87
2018-08-18T14:55:52.109Z,3.30
2018-08-18T14:58:29.540Z,4.60
2018-08-18T15:01:17.436Z,3.52
2018-08-18T15:03:52.581Z,4.33
2018-08-18T15:06:24.581Z,4.15
2018-08-18T15:09:04.293Z,4.65
2018-08-18T15:11:35.751Z,5.97
2018-08-18T15:14:06.883Z,4.15
2018-08-18T15:16:36.692Z,4.15
2018-08-18T15:19:06.646Z,3.22
2018-08-18T15:21:40.425Z,2.75
2018-08-18T15:24:11.037Z,5.00
2018-08-18T15:26:43.122Z,4.85
2018-08-18T15:29:17.319Z,2.92
2018-08-18T15:31:48.731Z,3.08
2018-08-18T15:34:21.066Z,3.65
2018-08-18T15:36:53.101Z,8.00
2018-08-18T15:39:27.840Z,3.72
2018-08-18T15:41:59.992Z,4.33
2018-08-18T15:44:29.634Z,6.75
2018-08-18T15:46:59.568Z,3.42
2018-08-18T15:49:29.211Z,3.42
2018-08-18T15:51:58.718Z,2.75
2018-08-18T15:54:28.397Z,2.47
2018-08-18T15:56:58.036Z,5.75
2018-08-18T15:59:27.612Z,2.92
2018-08-18T16:01:57.256Z,4.72
2018-08-18T16:04:26.789Z,4.03
2018-08-18T16:06:56.383Z,4.65
2018-08-18T16:09:25.988Z,3.72
2018-08-18T16:11:57.333Z,4.15
2018-08-18T16:14:30.358Z,3.70
2018-08-18T16:17:02.233Z,4.72
2018-08-18T16:19:36.775Z,4.80
2018-08-18T16:22:08.878Z,5.17
2018-08-18T16:24:47.655Z,3.95
2018-08-18T16:27:27.444Z,4.42
2018-08-18T16:29:57.313Z,2.77
2018-08-18T16:32:28.924Z,4.15
2018-08-18T16:35:07.588Z,4.58
2018-08-18T16:37:43.470Z,3.58
2018-08-18T16:40:19.509Z,4.25
2018-08-18T16:42:49.226Z,7.17
2018-08-18T16:45:23.169Z,4.50
2018-08-18T16:47:54.208Z,4.25
2018-08-18T16:50:26.333Z,3.35
2018-08-18T16:52:59.320Z,4.55
2018-08-18T16:55:33.349Z,4.42
2018-08-18T16:58:05.873Z,3.77
2018-08-18T17:00:41.390Z,3.62
2018-08-18T17:03:12.792Z,5.55
2018-08-18T17:05:46.278Z,4.58
2018-08-18T17:08:16.383Z,4.22
2018-08-18T17:10:48.848Z,7.65
2018-08-18T17:13:18.624Z,3.25
2018-08-18T17:15:50.034Z,3.47
2018-08-18T17:18:20.574Z,9.25
2018-08-18T17:20:55.614Z,5.00
2018-08-18T17:23:25.233Z,5.62
2018-08-18T17:25:55.953Z,3.67
2018-08-18T17:28:27.256Z,4.58
2018-08-18T17:30:58.666Z,5.97
2018-08-18T17:33:29.031Z,7.85
2018-08-18T17:36:00.364Z,3.37
2018-08-18T17:38:30.324Z,3.27
2018-08-18T17:41:02.159Z,4.12
2018-08-18T17:43:32.595Z,3.87
2018-08-18T17:46:06.189Z,4.58
2018-08-18T17:48:55.463Z,3.75
2018-08-18T17:51:25.565Z,4.43
2018-08-18T17:53:55.504Z,3.70
2018-08-18T17:56:25.090Z,4.57
2018-08-18T17:58:55.783Z,3.57
2018-08-18T18:01:27.182Z,2.50
2018-08-18T18:03:58.064Z,3.15
2018-08-18T18:06:27.482Z,3.03
2018-08-18T18:08:57.139Z,3.63
2018-08-18T18:11:26.819Z,5.60
2018-08-18T18:13:56.397Z,3.60
2018-08-18T18:16:28.110Z,3.60
2018-08-18T18:18:59.475Z,4.47
2018-08-18T18:21:29.165Z,5.10
2018-08-18T18:24:00.329Z,5.23
2018-08-18T18:26:30.978Z,6.20
2018-08-18T18:29:00.915Z,6.43
2018-08-18T18:31:32.069Z,3.57
2018-08-18T18:34:03.244Z,5.37
2018-08-18T18:36:34.460Z,5.77
2018-08-18T18:39:05.004Z,3.03
2018-08-18T18:41:35.129Z,2.83
2018-08-18T18:44:04.884Z,3.87
2018-08-18T18:46:36.282Z,8.40
2018-08-18T18:49:19.792Z,4.63
2018-08-18T18:51:52.762Z,4.90
2018-08-18T18:54:23.795Z,3.33
2018-08-18T18:57:02.892Z,3.60
2018-08-18T18:59:46.858Z,4.57
2018-08-18T19:06:17.823Z,3.70
2018-08-18T19:09:02.073Z,4.10
2018-08-18T19:11:37.609Z,4.60
2018-08-18T19:14:18.849Z,3.23
2018-08-18T19:16:56.976Z,7.00
2018-08-18T19:19:31.984Z,5.17
2018-08-18T19:22:11.352Z,3.23
2018-08-18T19:24:54.761Z,7.30
2018-08-18T19:27:26.684Z,4.50
2018-08-18T19:29:59.858Z,5.57
2018-08-18T19:32:36.248Z,4.40
2018-08-18T19:35:13.494Z,3.87
2018-08-18T19:37:53.058Z,4.00
2018-08-18T19:40:24.141Z,3.80
2018-08-18T19:42:58.300Z,2.70
2018-08-18T19:45:35.425Z,5.77
2018-08-18T19:48:05.729Z,5.53
2018-08-18T19:50:35.468Z,4.70
2018-08-18T19:53:11.980Z,8.13
2018-08-18T19:55:41.392Z,2.80
2018-08-18T19:58:10.792Z,6.93
2018-08-18T20:00:41.106Z,4.03
2018-08-18T20:03:13.632Z,2.90
2018-08-18T20:05:43.021Z,3.10
2018-08-18T20:08:13.617Z,5.33
2018-08-18T20:10:48.856Z,4.27
2018-08-18T20:13:19.214Z,6.43
2018-08-18T20:15:53.348Z,4.17
2018-08-18T20:18:25.422Z,4.93
2018-08-18T20:21:00.276Z,4.10
2018-08-18T20:23:36.131Z,7.70
2018-08-18T20:26:05.786Z,4.27
2018-08-18T20:28:38.515Z,4.30
2018-08-18T20:31:10.517Z,3.47
2018-08-18T20:33:44.766Z,4.97
2018-08-18T20:36:21.109Z,6.17
2018-08-18T20:38:53.356Z,3.27
2018-08-18T20:41:26.430Z,5.83
2018-08-18T20:43:57.633Z,5.50
2018-08-18T20:46:28.709Z,6.23
2018-08-18T20:48:59.797Z,4.20
2018-08-18T20:51:36.462Z,6.83
2018-08-18T20:54:10.739Z,6.60
2018-08-18T20:56:43.756Z,5.10
2018-08-18T20:59:13.132Z,4.23
2018-08-18T21:01:52.294Z,3.87
2018-08-18T21:04:30.209Z,3.57
2018-08-18T21:07:07.692Z,5.60
2018-08-18T21:09:42.316Z,6.50
2018-08-18T21:12:16.617Z,8.43
2018-08-18T21:14:51.337Z,5.87
2018-08-18T21:17:32.960Z,6.33
2018-08-18T21:20:17.147Z,4.40
2018-08-18T21:22:49.911Z,6.13
2018-08-18T21:25:33.754Z,5.10
2018-08-18T21:28:11.848Z,3.67
2018-08-18T21:30:46.390Z,4.70
2018-08-18T21:33:19.894Z,4.10
2018-08-18T21:35:57.745Z,7.57
2018-08-18T21:38:35.329Z,6.67
2018-08-18T21:41:09.442Z,6.97
2018-08-18T21:43:50.754Z,5.47
2018-08-18T21:46:24.232Z,5.27
2018-08-18T21:48:58.384Z,5.00
2018-08-18T21:51:28.539Z,5.73
2018-08-18T21:54:07.713Z,5.07
2018-08-18T21:56:40.990Z,3.23
2018-08-18T21:59:24.789Z,4.67
2018-08-18T22:02:00.193Z,3.83
2018-08-18T22:04:33.001Z,4.73
2018-08-18T22:07:07.214Z,5.77
2018-08-18T22:09:58.492Z,4.43
2018-08-18T22:12:34.021Z,3.27
2018-08-18T22:15:19.384Z,8.53
2018-08-18T22:17:57.460Z,3.90
2018-08-18T22:20:32.557Z,5.17
2018-08-18T22:23:05.528Z,3.57
2018-08-18T22:25:38.685Z,3.93
2018-08-18T22:28:16.044Z,6.23
2018-08-18T22:30:56.714Z,5.37
2018-08-18T22:33:33.056Z,3.77
2018-08-18T22:36:06.556Z,4.07
2018-08-18T22:38:43.199Z,5.63
2018-08-18T22:41:20.562Z,3.10
2018-08-18T22:43:51.707Z,3.93
2018-08-18T22:46:31.377Z,5.10
2018-08-18T22:49:09.869Z,4.27
2018-08-18T22:51:47.504Z,3.23
2018-08-18T22:54:44.946Z,4.87
2018-08-18T22:57:25.045Z,4.97
2018-08-18T23:00:04.291Z,3.50
2018-08-18T23:02:37.579Z,3.43
2018-08-18T23:05:16.077Z,4.13
2018-08-18T23:08:04.390Z,5.97
2018-08-18T23:10:41.916Z,5.20
2018-08-18T23:13:25.211Z,3.60
2018-08-18T23:16:05.396Z,4.27
2018-08-18T23:18:41.372Z,6.03
2018-08-18T23:21:21.526Z,5.13
2018-08-18T23:23:56.032Z,3.60
2018-08-18T23:26:31.389Z,4.63
2018-08-18T23:29:06.329Z,5.73
2018-08-18T23:31:47.507Z,3.97
2018-08-18T23:34:23.356Z,3.97
2018-08-18T23:37:03.377Z,5.60
2018-08-18T23:39:34.166Z,6.67
2018-08-18T23:42:14.066Z,3.70
2018-08-18T23:44:43.652Z,6.57
2018-08-18T23:47:13.308Z,5.53
2018-08-18T23:49:42.792Z,6.37
2018-08-18T23:52:12.270Z,4.70
2018-08-18T23:54:41.628Z,4.83
2018-08-18T23:57:11.125Z,6.73
2018-08-18T23:59:40.507Z,6.27
